createdAt,value
2023-05-17T00:00:56.821Z,1007.66
2023-05-17T00:01:56.826Z,1007.63
2023-05-17T00:02:56.838Z,1007.63
2023-05-17T00:03:56.794Z,1007.63
2023-05-17T00:04:56.835Z,1007.67
2023-05-17T00:05:56.826Z,1007.68
2023-05-17T00:06:56.736Z,1007.67
2023-05-17T00:07:56.702Z,1007.69
2023-05-17T00:08:56.696Z,1007.67
2023-05-17T00:09:56.703Z,1007.72
2023-05-17T00:10:56.670Z,1007.72
2023-05-17T00:11:56.647Z,1007.74
2023-05-17T00:12:56.633Z,1007.75
2023-05-17T00:13:56.629Z,1007.74
2023-05-17T00:14:56.638Z,1007.71
2023-05-17T00:15:56.604Z,1007.72
2023-05-17T00:16:56.651Z,1007.70
2023-05-17T00:17:56.734Z,1007.72
2023-05-17T00:18:56.675Z,1007.70
2023-05-17T00:19:56.605Z,1007.70
2023-05-17T00:20:56.530Z,1007.70
2023-05-17T00:21:56.519Z,1007.70
2023-05-17T00:22:56.497Z,1007.70
2023-05-17T00:23:56.484Z,1007.68
2023-05-17T00:24:56.525Z,1007.73
2023-05-17T00:25:56.449Z,1007.70
2023-05-17T00:26:56.447Z,1007.72
2023-05-17T00:27:56.428Z,1007.68
2023-05-17T00:28:56.427Z,1007.72
2023-05-17T00:29:56.420Z,1007.74
2023-05-17T00:30:56.405Z,1007.74
2023-05-17T00:31:56.378Z,1007.75
2023-05-17T00:32:56.455Z,1007.78
2023-05-17T00:33:56.352Z,1007.76
2023-05-17T00:34:56.430Z,1007.81
2023-05-17T00:35:56.352Z,1007.76
2023-05-17T00:36:56.320Z,1007.79
2023-05-17T00:37:56.293Z,1007.79
2023-05-17T00:38:56.288Z,1007.80
2023-05-17T00:39:56.323Z,1007.79
2023-05-17T00:40:56.259Z,1007.78
2023-05-17T00:41:56.263Z,1007.80
2023-05-17T00:42:56.227Z,1007.76
2023-05-17T00:43:56.211Z,1007.78
2023-05-17T00:44:56.232Z,1007.79
2023-05-17T00:45:56.215Z,1007.78
2023-05-17T00:46:56.181Z,1007.81
2023-05-17T00:47:56.238Z,1007.82
2023-05-17T00:48:56.197Z,1007.80
2023-05-17T00:49:56.145Z,1007.80
2023-05-17T00:50:56.130Z,1007.83
2023-05-17T00:51:56.108Z,1007.87
2023-05-17T00:52:56.105Z,1007.91
2023-05-17T00:53:56.101Z,1007.86
2023-05-17T00:54:56.780Z,1007.90
2023-05-17T00:55:56.107Z,1007.84
2023-05-17T00:56:56.051Z,1007.85
2023-05-17T00:57:56.025Z,1007.86
2023-05-17T00:58:56.045Z,1007.88
2023-05-17T00:59:55.999Z,1007.90
2023-05-17T01:00:55.990Z,1007.92
2023-05-17T01:01:55.982Z,1007.91
2023-05-17T01:02:56.029Z,1007.92
2023-05-17T01:03:56.027Z,1007.92
2023-05-17T01:04:55.994Z,1007.93
2023-05-17T01:05:55.927Z,1007.95
2023-05-17T01:06:55.917Z,1007.97
2023-05-17T01:07:55.910Z,1007.96
2023-05-17T01:08:55.894Z,1007.99
2023-05-17T01:09:55.875Z,1008.00
2023-05-17T01:10:55.869Z,1008.04
2023-05-17T01:11:55.848Z,1008.02
2023-05-17T01:12:55.848Z,1008.05
2023-05-17T01:13:55.828Z,1008.01
2023-05-17T01:14:55.831Z,1008.05
2023-05-17T01:15:55.795Z,1008.03
2023-05-17T01:16:55.780Z,1008.06
2023-05-17T01:17:55.897Z,1008.10
2023-05-17T01:18:55.813Z,1008.10
2023-05-17T01:19:55.777Z,1008.12
2023-05-17T01:20:55.729Z,1008.12
2023-05-17T01:21:55.728Z,1008.17
2023-05-17T01:22:55.716Z,1008.18
2023-05-17T01:23:55.691Z,1008.21
2023-05-17T01:24:55.666Z,1008.17
2023-05-17T01:25:55.649Z,1008.21
2023-05-17T01:26:55.656Z,1008.20
2023-05-17T01:27:55.630Z,1008.22
2023-05-17T01:28:55.619Z,1008.22
2023-05-17T01:29:55.601Z,1008.19
2023-05-17T01:30:55.609Z,1008.17
2023-05-17T01:31:55.588Z,1008.19
2023-05-17T01:32:55.609Z,1008.19
2023-05-17T01:33:55.611Z,1008.21
2023-05-17T01:34:55.528Z,1008.21
2023-05-17T01:35:55.517Z,1008.21
2023-05-17T01:36:55.524Z,1008.23
2023-05-17T01:37:55.504Z,1008.25
2023-05-17T01:38:55.486Z,1008.28
2023-05-17T01:39:55.457Z,1008.27
2023-05-17T01:40:55.475Z,1008.25
2023-05-17T01:41:55.456Z,1008.32
2023-05-17T01:42:55.438Z,1008.30
2023-05-17T01:43:55.408Z,1008.33
2023-05-17T01:44:55.400Z,1008.32
2023-05-17T01:45:55.407Z,1008.33
2023-05-17T01:46:55.412Z,1008.34
2023-05-17T01:47:55.403Z,1008.38
2023-05-17T01:48:55.467Z,1008.40
2023-05-17T01:49:55.337Z,1008.37
2023-05-17T01:50:55.342Z,1008.37
2023-05-17T01:51:55.306Z,1008.37
2023-05-17T01:52:55.301Z,1008.36
2023-05-17T01:53:55.280Z,1008.38
2023-05-17T01:54:55.287Z,1008.38
2023-05-17T01:55:55.267Z,1008.39
2023-05-17T01:56:55.246Z,1008.42
2023-05-17T01:57:55.243Z,1008.42
2023-05-17T01:58:55.250Z,1008.43
2023-05-17T01:59:55.203Z,1008.40
2023-05-17T02:00:55.208Z,1008.40
2023-05-17T02:01:55.175Z,1008.39
2023-05-17T02:02:55.239Z,1008.42
2023-05-17T02:03:55.194Z,1008.42
2023-05-17T02:04:55.201Z,1008.39
2023-05-17T02:05:55.151Z,1008.42
2023-05-17T02:06:55.132Z,1008.47
2023-05-17T02:07:55.097Z,1008.46
2023-05-17T02:08:55.093Z,1008.46
2023-05-17T02:09:55.084Z,1008.46
2023-05-17T02:10:55.066Z,1008.46
2023-05-17T02:11:55.053Z,1008.49
2023-05-17T02:12:55.032Z,1008.52
2023-05-17T02:13:55.015Z,1008.50
2023-05-17T02:14:55.029Z,1008.48
2023-05-17T02:15:54.984Z,1008.52
2023-05-17T02:16:54.986Z,1008.49
2023-05-17T02:17:55.072Z,1008.48
2023-05-17T02:18:55.098Z,1008.46
2023-05-17T02:19:54.963Z,1008.47
2023-05-17T02:20:54.928Z,1008.46
2023-05-17T02:21:54.905Z,1008.52
2023-05-17T02:22:54.926Z,1008.50
2023-05-17T02:23:54.904Z,1008.47
2023-05-17T02:24:54.892Z,1008.48
2023-05-17T02:25:54.854Z,1008.48
2023-05-17T02:26:54.852Z,1008.49
2023-05-17T02:27:54.831Z,1008.46
2023-05-17T02:28:54.837Z,1008.54
2023-05-17T02:29:54.813Z,1008.56
2023-05-17T02:30:54.803Z,1008.57
2023-05-17T02:31:54.841Z,1008.57
2023-05-17T02:32:54.870Z,1008.59
2023-05-17T02:33:54.925Z,1008.59
2023-05-17T02:34:54.743Z,1008.59
2023-05-17T02:35:54.735Z,1008.60
2023-05-17T02:36:54.716Z,1008.60
2023-05-17T02:37:54.718Z,1008.61
2023-05-17T02:38:54.712Z,1008.59
2023-05-17T02:39:54.689Z,1008.66
2023-05-17T02:40:54.663Z,1008.63
2023-05-17T02:41:54.651Z,1008.61
2023-05-17T02:42:54.643Z,1008.60
2023-05-17T02:43:54.646Z,1008.60
2023-05-17T02:44:54.644Z,1008.59
2023-05-17T02:45:54.612Z,1008.57
2023-05-17T02:46:54.651Z,1008.56
2023-05-17T02:47:54.636Z,1008.56
2023-05-17T02:48:54.600Z,1008.55
2023-05-17T02:49:54.546Z,1008.55
2023-05-17T02:50:54.542Z,1008.55
2023-05-17T02:51:54.544Z,1008.57
2023-05-17T02:52:54.510Z,1008.58
2023-05-17T02:53:54.488Z,1008.60
2023-05-17T02:54:54.478Z,1008.58
2023-05-17T02:55:54.466Z,1008.58
2023-05-17T02:56:54.453Z,1008.61
2023-05-17T02:57:54.443Z,1008.58
2023-05-17T02:58:54.430Z,1008.59
2023-05-17T02:59:54.410Z,1008.61
2023-05-17T03:00:54.404Z,1008.59
2023-05-17T03:01:54.386Z,1008.60
2023-05-17T03:02:54.503Z,1008.61
2023-05-17T03:03:54.646Z,1008.62
2023-05-17T03:04:54.417Z,1008.60
2023-05-17T03:05:54.325Z,1008.63
2023-05-17T03:06:54.345Z,1008.63
2023-05-17T03:07:54.330Z,1008.65
2023-05-17T03:08:54.309Z,1008.66
2023-05-17T03:09:54.267Z,1008.65
2023-05-17T03:10:54.333Z,1008.65
2023-05-17T03:11:54.269Z,1008.61
2023-05-17T03:12:54.255Z,1008.63
2023-05-17T03:13:54.224Z,1008.66
2023-05-17T03:14:54.215Z,1008.66
2023-05-17T03:15:54.201Z,1008.65
2023-05-17T03:16:54.209Z,1008.66
2023-05-17T03:17:54.211Z,1008.61
2023-05-17T03:18:54.306Z,1008.67
2023-05-17T03:19:54.199Z,1008.71
2023-05-17T03:20:54.157Z,1008.73
2023-05-17T03:21:54.141Z,1008.74
2023-05-17T03:22:54.184Z,1008.75
2023-05-17T03:23:54.080Z,1008.78
2023-05-17T03:24:54.092Z,1008.79
2023-05-17T03:25:54.084Z,1008.83
2023-05-17T03:26:54.088Z,1008.84
2023-05-17T03:27:54.086Z,1008.80
2023-05-17T03:28:54.027Z,1008.84
2023-05-17T03:29:54.009Z,1008.81
2023-05-17T03:30:54.072Z,1008.79
2023-05-17T03:31:53.988Z,1008.78
2023-05-17T03:32:54.022Z,1008.84
2023-05-17T03:33:54.017Z,1008.84
2023-05-17T03:34:53.979Z,1008.91
2023-05-17T03:35:53.941Z,1008.87
2023-05-17T03:36:53.928Z,1008.89
2023-05-17T03:37:53.926Z,1008.90
2023-05-17T03:38:53.896Z,1008.86
2023-05-17T03:39:53.896Z,1008.87
2023-05-17T03:40:53.887Z,1008.86
2023-05-17T03:41:53.856Z,1008.87
2023-05-17T03:42:53.854Z,1008.91
2023-05-17T03:43:53.833Z,1008.90
2023-05-17T03:44:53.834Z,1008.86
2023-05-17T03:45:53.793Z,1008.86
2023-05-17T03:46:53.787Z,1008.84
2023-05-17T03:47:53.822Z,1008.81
2023-05-17T03:48:53.811Z,1008.84
2023-05-17T03:49:53.764Z,1008.82
2023-05-17T03:50:53.736Z,1008.84
2023-05-17T03:51:53.739Z,1008.85
2023-05-17T03:52:53.718Z,1008.83
2023-05-17T03:53:53.697Z,1008.78
2023-05-17T03:54:53.697Z,1008.79
2023-05-17T03:55:53.668Z,1008.80
2023-05-17T03:56:53.641Z,1008.80
2023-05-17T03:57:53.648Z,1008.82
2023-05-17T03:58:53.653Z,1008.82
2023-05-17T03:59:53.617Z,1008.82
2023-05-17T04:00:53.603Z,1008.85
2023-05-17T04:01:53.592Z,1008.85
2023-05-17T04:02:53.651Z,1008.86
2023-05-17T04:03:53.600Z,1008.86
2023-05-17T04:04:53.629Z,1008.91
2023-05-17T04:05:53.572Z,1008.91
2023-05-17T04:06:53.532Z,1008.94
2023-05-17T04:07:53.517Z,1008.91
2023-05-17T04:08:53.517Z,1008.93
2023-05-17T04:09:53.497Z,1008.91
2023-05-17T04:10:53.490Z,1008.92
2023-05-17T04:11:53.461Z,1008.87
2023-05-17T04:12:53.480Z,1008.85
2023-05-17T04:13:53.458Z,1008.90
2023-05-17T04:14:53.502Z,1008.92
2023-05-17T04:15:53.408Z,1008.96
2023-05-17T04:16:53.405Z,1008.90
2023-05-17T04:17:53.468Z,1008.97
2023-05-17T04:18:53.533Z,1008.97
2023-05-17T04:19:53.408Z,1008.98
2023-05-17T04:20:53.355Z,1008.97
2023-05-17T04:21:53.327Z,1008.98
2023-05-17T04:22:53.337Z,1008.96
2023-05-17T04:23:53.331Z,1008.94
2023-05-17T04:24:53.308Z,1008.94
2023-05-17T04:25:53.302Z,1008.92
2023-05-17T04:26:53.276Z,1008.89
2023-05-17T04:27:53.289Z,1008.91
2023-05-17T04:28:53.228Z,1008.90
2023-05-17T04:29:53.229Z,1008.92
2023-05-17T04:30:53.229Z,1008.93
2023-05-17T04:31:53.190Z,1008.93
2023-05-17T04:32:53.249Z,1008.92
2023-05-17T04:33:53.234Z,1008.94
2023-05-17T04:34:53.159Z,1008.93
2023-05-17T04:35:53.147Z,1008.94
2023-05-17T04:36:53.159Z,1008.96
2023-05-17T04:37:53.143Z,1008.93
2023-05-17T04:38:53.117Z,1008.92
2023-05-17T04:39:53.182Z,1008.91
2023-05-17T04:40:53.087Z,1008.94
2023-05-17T04:41:53.085Z,1008.91
2023-05-17T04:42:53.072Z,1008.94
2023-05-17T04:43:53.055Z,1008.96
2023-05-17T04:44:53.031Z,1008.98
2023-05-17T04:45:53.019Z,1009.01
2023-05-17T04:46:53.040Z,1009.06
2023-05-17T04:47:53.071Z,1009.05
2023-05-17T04:48:53.045Z,1009.08
2023-05-17T04:49:52.956Z,1009.14
2023-05-17T04:50:52.969Z,1009.14
2023-05-17T04:51:52.951Z,1009.19
2023-05-17T04:52:52.932Z,1009.24
2023-05-17T04:53:52.913Z,1009.26
2023-05-17T04:54:52.902Z,1009.24
2023-05-17T04:55:52.906Z,1009.33
2023-05-17T04:56:52.874Z,1009.31
2023-05-17T04:57:52.871Z,1009.33
2023-05-17T04:58:53.142Z,1009.32
2023-05-17T04:59:52.863Z,1009.34
2023-05-17T05:00:52.840Z,1009.40
2023-05-17T05:01:52.781Z,1009.43
2023-05-17T05:02:53.415Z,1009.43
2023-05-17T05:03:52.821Z,1009.41
2023-05-17T05:04:52.883Z,1009.44
2023-05-17T05:05:52.768Z,1009.46
2023-05-17T05:06:52.743Z,1009.44
2023-05-17T05:07:52.726Z,1009.46
2023-05-17T05:08:52.816Z,1009.49
2023-05-17T05:09:52.712Z,1009.47
2023-05-17T05:10:52.703Z,1009.47
2023-05-17T05:11:52.675Z,1009.47
2023-05-17T05:12:52.670Z,1009.44
2023-05-17T05:13:52.631Z,1009.48
2023-05-17T05:14:52.654Z,1009.46
2023-05-17T05:15:52.661Z,1009.50
2023-05-17T05:16:52.597Z,1009.51
2023-05-17T05:17:52.672Z,1009.51
2023-05-17T05:18:52.766Z,1009.50
2023-05-17T05:19:52.838Z,1009.51
2023-05-17T05:20:52.544Z,1009.53
2023-05-17T05:21:52.538Z,1009.56
2023-05-17T05:22:52.519Z,1009.56
2023-05-17T05:23:52.508Z,1009.57
2023-05-17T05:24:52.521Z,1009.59
2023-05-17T05:25:52.483Z,1009.61
2023-05-17T05:26:53.183Z,1009.63
2023-05-17T05:27:52.453Z,1009.59
2023-05-17T05:28:52.464Z,1009.59
2023-05-17T05:29:52.439Z,1009.57
2023-05-17T05:30:52.430Z,1009.57
2023-05-17T05:31:52.460Z,1009.62
2023-05-17T05:32:52.514Z,1009.58
2023-05-17T05:33:52.413Z,1009.60
2023-05-17T05:34:52.380Z,1009.59
2023-05-17T05:35:52.339Z,1009.64
2023-05-17T05:36:52.348Z,1009.62
2023-05-17T05:37:52.326Z,1009.59
2023-05-17T05:38:52.329Z,1009.56
2023-05-17T05:39:52.306Z,1009.57
2023-05-17T05:40:52.333Z,1009.59
2023-05-17T05:41:52.273Z,1009.62
2023-05-17T05:42:52.251Z,1009.63
2023-05-17T05:43:52.289Z,1009.61
2023-05-17T05:44:52.311Z,1009.59
2023-05-17T05:45:52.203Z,1009.58
2023-05-17T05:46:52.232Z,1009.58
2023-05-17T05:47:52.253Z,1009.58
2023-05-17T05:48:52.251Z,1009.63
2023-05-17T05:49:52.158Z,1009.65
2023-05-17T05:50:52.148Z,1009.66
2023-05-17T05:51:52.134Z,1009.66
2023-05-17T05:52:53.457Z,1009.72
2023-05-17T05:53:52.125Z,1009.78
2023-05-17T05:54:52.098Z,1009.75
2023-05-17T05:55:52.105Z,1009.80
2023-05-17T05:56:52.069Z,1009.80
2023-05-17T05:57:52.074Z,1009.83
2023-05-17T05:58:52.055Z,1009.82
2023-05-17T05:59:52.026Z,1009.86
2023-05-17T06:00:52.042Z,1009.86
2023-05-17T06:01:52.006Z,1009.83
2023-05-17T06:02:52.046Z,1009.86
2023-05-17T06:03:51.976Z,1009.89
2023-05-17T06:04:52.069Z,1009.89
2023-05-17T06:05:52.015Z,1009.93
2023-05-17T06:06:53.097Z,1009.94
2023-05-17T06:07:51.959Z,1009.96
2023-05-17T06:08:51.909Z,1009.91
2023-05-17T06:09:51.894Z,1009.91
2023-05-17T06:10:51.914Z,1009.94
2023-05-17T06:11:51.862Z,1009.91
2023-05-17T06:12:51.867Z,1009.97
2023-05-17T06:13:51.857Z,1009.95
2023-05-17T06:14:51.823Z,1009.94
2023-05-17T06:15:51.817Z,1009.93
2023-05-17T06:16:51.806Z,1009.89
2023-05-17T06:17:51.916Z,1009.91
2023-05-17T06:18:51.855Z,1009.88
2023-05-17T06:19:51.801Z,1009.86
2023-05-17T06:20:51.740Z,1009.89
2023-05-17T06:21:51.756Z,1009.86
2023-05-17T06:22:51.829Z,1009.94
2023-05-17T06:23:51.706Z,1009.94
2023-05-17T06:24:51.687Z,1009.93
2023-05-17T06:25:51.670Z,1009.93
2023-05-17T06:26:51.667Z,1009.89
2023-05-17T06:27:51.655Z,1009.92
2023-05-17T06:28:51.624Z,1009.93
2023-05-17T06:29:51.620Z,1009.93
2023-05-17T06:30:51.612Z,1009.96
2023-05-17T06:31:51.725Z,1009.90
2023-05-17T06:32:51.689Z,1009.93
2023-05-17T06:33:51.639Z,1009.99
2023-05-17T06:34:51.568Z,1009.99
2023-05-17T06:35:56.894Z,1010.02
2023-05-17T06:36:52.531Z,1009.96
2023-05-17T06:37:51.514Z,1009.97
2023-05-17T06:38:51.481Z,1009.93
2023-05-17T06:39:55.996Z,1009.93
2023-05-17T06:40:52.494Z,1009.92
2023-05-17T06:41:51.670Z,1009.94
2023-05-17T06:42:51.455Z,1009.92
2023-05-17T06:43:51.442Z,1009.94
2023-05-17T06:44:51.410Z,1009.94
2023-05-17T06:45:51.517Z,1009.92
2023-05-17T06:46:51.377Z,1009.95
2023-05-17T06:47:51.465Z,1009.99
2023-05-17T06:48:51.719Z,1010.03
2023-05-17T06:49:51.378Z,1009.99
2023-05-17T06:50:51.337Z,1010.01
2023-05-17T06:51:51.300Z,1009.99
2023-05-17T06:52:51.346Z,1009.97
2023-05-17T06:53:51.313Z,1009.99
2023-05-17T06:54:51.286Z,1010.01
2023-05-17T06:55:51.276Z,1010.02
2023-05-17T06:56:51.240Z,1010.02
2023-05-17T06:57:51.248Z,1010.07
2023-05-17T06:58:51.237Z,1010.07
2023-05-17T06:59:51.224Z,1010.09
2023-05-17T07:00:51.179Z,1010.13
2023-05-17T07:01:51.177Z,1010.10
2023-05-17T07:02:51.189Z,1010.06
2023-05-17T07:03:51.276Z,1010.08
2023-05-17T07:04:51.181Z,1010.08
2023-05-17T07:05:51.137Z,1010.06
2023-05-17T07:06:51.120Z,1010.11
2023-05-17T07:07:51.871Z,1010.12
2023-05-17T07:08:51.145Z,1010.11
2023-05-17T07:09:51.069Z,1010.14
2023-05-17T07:10:51.064Z,1010.13
2023-05-17T07:11:51.046Z,1010.13
2023-05-17T07:12:51.029Z,1010.08
2023-05-17T07:13:52.783Z,1010.14
2023-05-17T07:14:51.181Z,1010.10
2023-05-17T07:15:50.997Z,1010.10
2023-05-17T07:16:50.987Z,1010.11
2023-05-17T07:17:51.020Z,1010.11
2023-05-17T07:18:51.131Z,1010.11
2023-05-17T07:19:53.394Z,1010.09
2023-05-17T07:20:50.919Z,1010.11
2023-05-17T07:21:50.926Z,1010.13
2023-05-17T07:22:50.917Z,1010.13
2023-05-17T07:23:50.913Z,1010.13
2023-05-17T07:24:50.862Z,1010.13
2023-05-17T07:25:50.849Z,1010.12
2023-05-17T07:26:52.333Z,1010.16
2023-05-17T07:27:50.847Z,1010.22
2023-05-17T07:28:50.814Z,1010.21
2023-05-17T07:29:50.804Z,1010.23
2023-05-17T07:30:50.776Z,1010.25
2023-05-17T07:31:50.785Z,1010.26
2023-05-17T07:32:50.828Z,1010.25
2023-05-17T07:33:50.779Z,1010.21
2023-05-17T07:34:50.737Z,1010.20
2023-05-17T07:35:50.766Z,1010.12
2023-05-17T07:36:50.712Z,1010.16
2023-05-17T07:37:50.716Z,1010.12
2023-05-17T07:38:50.676Z,1010.10
2023-05-17T07:39:50.664Z,1010.09
2023-05-17T07:40:50.639Z,1010.13
2023-05-17T07:41:50.636Z,1010.09
2023-05-17T07:42:50.665Z,1010.05
2023-05-17T07:43:50.611Z,1010.09
2023-05-17T07:44:50.596Z,1010.11
2023-05-17T07:45:50.582Z,1010.14
2023-05-17T07:46:50.604Z,1010.13
2023-05-17T07:47:50.630Z,1010.19
2023-05-17T07:48:50.738Z,1010.15
2023-05-17T07:49:50.537Z,1010.18
2023-05-17T07:50:50.527Z,1010.15
2023-05-17T07:51:50.545Z,1010.18
2023-05-17T07:52:50.489Z,1010.21
2023-05-17T07:53:50.502Z,1010.19
2023-05-17T07:54:50.474Z,1010.21
2023-05-17T07:55:51.238Z,1010.20
2023-05-17T07:56:50.460Z,1010.24
2023-05-17T07:57:50.465Z,1010.21
2023-05-17T07:58:50.454Z,1010.20
2023-05-17T07:59:50.397Z,1010.23
2023-05-17T08:00:50.404Z,1010.26
2023-05-17T08:01:50.383Z,1010.27
2023-05-17T08:02:50.381Z,1010.28
2023-05-17T08:03:50.362Z,1010.29
2023-05-17T08:04:50.372Z,1010.34
2023-05-17T08:05:50.379Z,1010.29
2023-05-17T08:06:50.333Z,1010.27
2023-05-17T08:07:50.305Z,1010.27
2023-05-17T08:08:50.273Z,1010.27
2023-05-17T08:09:50.274Z,1010.24
2023-05-17T08:10:50.288Z,1010.27
2023-05-17T08:11:50.250Z,1010.25
2023-05-17T08:12:50.205Z,1010.21
2023-05-17T08:13:50.204Z,1010.19
2023-05-17T08:14:50.213Z,1010.22
2023-05-17T08:15:53.659Z,1010.25
2023-05-17T08:16:51.170Z,1010.18
2023-05-17T08:17:50.430Z,1010.20
2023-05-17T08:18:50.296Z,1010.18
2023-05-17T08:19:50.222Z,1010.21
2023-05-17T08:20:50.130Z,1010.18
2023-05-17T08:21:50.102Z,1010.23
2023-05-17T08:22:50.079Z,1010.21
2023-05-17T08:23:50.075Z,1010.22
2023-05-17T08:24:50.073Z,1010.19
2023-05-17T08:25:50.046Z,1010.14
2023-05-17T08:26:50.038Z,1010.22
2023-05-17T08:27:50.019Z,1010.13
2023-05-17T08:28:50.038Z,1010.14
2023-05-17T08:29:50.136Z,1010.15
2023-05-17T08:30:49.984Z,1010.08
2023-05-17T08:31:49.962Z,1010.15
2023-05-17T08:32:50.010Z,1010.11
2023-05-17T08:33:49.981Z,1010.08
2023-05-17T08:34:49.972Z,1010.11
2023-05-17T08:35:49.910Z,1010.11
2023-05-17T08:36:49.912Z,1010.15
2023-05-17T08:37:49.884Z,1010.11
2023-05-17T08:38:49.883Z,1010.10
2023-05-17T08:39:49.909Z,1010.13
2023-05-17T08:40:49.841Z,1010.13
2023-05-17T08:41:49.856Z,1010.10
2023-05-17T08:42:49.837Z,1010.13
2023-05-17T08:43:49.825Z,1010.14
2023-05-17T08:44:49.780Z,1010.10
2023-05-17T08:45:49.773Z,1010.12
2023-05-17T08:46:49.759Z,1010.13
2023-05-17T08:47:49.780Z,1010.11
2023-05-17T08:48:49.801Z,1010.11
2023-05-17T08:49:49.714Z,1010.08
2023-05-17T08:50:49.676Z,1010.08
2023-05-17T08:51:49.694Z,1010.11
2023-05-17T08:52:49.790Z,1010.09
2023-05-17T08:53:49.673Z,1010.06
2023-05-17T08:54:49.649Z,1010.08
2023-05-17T08:55:49.644Z,1010.09
2023-05-17T08:56:49.627Z,1010.11
2023-05-17T08:57:49.660Z,1010.10
2023-05-17T08:58:56.165Z,1010.06
2023-05-17T08:59:50.588Z,1010.10
2023-05-17T09:00:50.027Z,1010.08
2023-05-17T09:01:49.556Z,1010.02
2023-05-17T09:02:49.656Z,1010.05
2023-05-17T09:03:49.589Z,1010.05
2023-05-17T09:04:49.579Z,1010.01
2023-05-17T09:05:49.611Z,1010.04
2023-05-17T09:06:49.504Z,1010.01
2023-05-17T09:07:49.501Z,1009.99
2023-05-17T09:08:49.455Z,1010.03
2023-05-17T09:09:49.546Z,1010.07
2023-05-17T09:10:49.436Z,1010.10
2023-05-17T09:11:49.440Z,1010.06
2023-05-17T09:12:49.398Z,1010.11
2023-05-17T09:13:49.451Z,1010.04
2023-05-17T09:14:49.385Z,1010.08
2023-05-17T09:15:49.378Z,1010.11
2023-05-17T09:16:49.386Z,1010.09
2023-05-17T09:17:49.443Z,1010.07
2023-05-17T09:18:49.477Z,1010.12
2023-05-17T09:19:49.382Z,1010.05
2023-05-17T09:20:49.292Z,1010.07
2023-05-17T09:21:49.308Z,1010.09
2023-05-17T09:22:49.270Z,1010.05
2023-05-17T09:24:01.677Z,1010.09
2023-05-17T09:24:50.241Z,1010.09
2023-05-17T09:25:49.289Z,1010.03
2023-05-17T09:26:49.246Z,1010.05
2023-05-17T09:27:49.248Z,1010.07
2023-05-17T09:28:49.187Z,1010.07
2023-05-17T09:29:49.193Z,1010.06
2023-05-17T09:30:49.201Z,1010.07
2023-05-17T09:31:49.180Z,1010.07
2023-05-17T09:33:49.157Z,1010.04
2023-05-17T09:34:49.116Z,1010.08
2023-05-17T09:35:49.134Z,1010.03
2023-05-17T09:36:49.087Z,1010.08
2023-05-17T09:37:49.078Z,1010.10
2023-05-17T09:38:49.057Z,1010.09
2023-05-17T09:39:49.046Z,1010.09
2023-05-17T09:40:49.042Z,1010.08
2023-05-17T09:41:49.035Z,1010.11
2023-05-17T09:42:49.006Z,1010.09
2023-05-17T09:43:49.008Z,1010.07
2023-05-17T09:44:48.990Z,1010.08
2023-05-17T09:45:48.991Z,1010.07
2023-05-17T09:46:48.989Z,1010.02
2023-05-17T09:47:49.019Z,1009.98
2023-05-17T09:48:49.011Z,1009.97
2023-05-17T09:49:48.941Z,1009.97
2023-05-17T09:50:48.900Z,1009.97
2023-05-17T09:51:48.911Z,1010.00
2023-05-17T09:52:48.879Z,1010.02
2023-05-17T09:53:48.872Z,1009.96
2023-05-17T09:54:48.875Z,1010.02
2023-05-17T09:55:48.841Z,1010.04
2023-05-17T09:56:48.834Z,1009.98
2023-05-17T09:57:48.809Z,1010.02
2023-05-17T09:58:48.799Z,1009.99
2023-05-17T09:59:48.804Z,1010.00
2023-05-17T10:00:48.991Z,1010.03
2023-05-17T10:01:48.770Z,1010.00
2023-05-17T10:02:48.786Z,1010.02
2023-05-17T10:03:48.862Z,1010.00
2023-05-17T10:04:48.741Z,1009.91
2023-05-17T10:05:48.715Z,1009.89
2023-05-17T10:06:51.723Z,1009.87
2023-05-17T10:07:48.695Z,1009.88
2023-05-17T10:08:48.696Z,1009.84
2023-05-17T10:09:48.674Z,1009.85
2023-05-17T10:10:48.630Z,1009.91
2023-05-17T10:11:48.650Z,1009.88
2023-05-17T10:12:48.613Z,1009.91
2023-05-17T10:13:48.612Z,1009.94
2023-05-17T10:14:48.692Z,1009.91
2023-05-17T10:15:48.597Z,1009.90
2023-05-17T10:16:48.564Z,1009.93
2023-05-17T10:17:48.603Z,1009.94
2023-05-17T10:18:48.599Z,1009.90
2023-05-17T10:19:48.685Z,1009.89
2023-05-17T10:20:48.519Z,1009.84
2023-05-17T10:21:48.514Z,1009.84
2023-05-17T10:22:48.486Z,1009.82
2023-05-17T10:23:48.482Z,1009.79
2023-05-17T10:24:48.467Z,1009.81
2023-05-17T10:25:48.441Z,1009.80
2023-05-17T10:26:48.426Z,1009.77
2023-05-17T10:27:48.423Z,1009.79
2023-05-17T10:28:48.401Z,1009.74
2023-05-17T10:29:50.433Z,1009.73
2023-05-17T10:30:48.376Z,1009.71
2023-05-17T10:31:48.352Z,1009.65
2023-05-17T10:32:48.520Z,1009.71
2023-05-17T10:33:48.347Z,1009.67
2023-05-17T10:34:54.783Z,1009.67
2023-05-17T10:35:49.302Z,1009.68
2023-05-17T10:36:48.315Z,1009.67
2023-05-17T10:37:48.313Z,1009.65
2023-05-17T10:38:48.324Z,1009.68
2023-05-17T10:39:48.553Z,1009.69
2023-05-17T10:40:48.237Z,1009.67
2023-05-17T10:41:48.704Z,1009.62
2023-05-17T10:42:48.238Z,1009.60
2023-05-17T10:43:48.188Z,1009.59
2023-05-17T10:44:48.183Z,1009.63
2023-05-17T10:45:48.162Z,1009.61
2023-05-17T10:46:48.185Z,1009.62
2023-05-17T10:47:48.138Z,1009.57
2023-05-17T10:48:48.172Z,1009.60
2023-05-17T10:49:48.229Z,1009.58
2023-05-17T10:51:01.173Z,1009.56
2023-05-17T10:51:49.102Z,1009.54
2023-05-17T10:52:48.070Z,1009.62
2023-05-17T10:53:48.062Z,1009.60
2023-05-17T10:54:48.051Z,1009.57
2023-05-17T10:55:48.055Z,1009.61
2023-05-17T10:56:48.044Z,1009.60
2023-05-17T10:57:51.118Z,1009.53
2023-05-17T10:58:48.014Z,1009.57
2023-05-17T10:59:47.971Z,1009.58
2023-05-17T11:00:47.984Z,1009.54
2023-05-17T11:01:47.959Z,1009.54
2023-05-17T11:02:47.965Z,1009.52
2023-05-17T11:03:47.934Z,1009.52
2023-05-17T11:04:47.976Z,1009.52
2023-05-17T11:05:48.190Z,1009.49
2023-05-17T11:06:47.979Z,1009.42
2023-05-17T11:07:47.845Z,1009.47
2023-05-17T11:08:47.840Z,1009.44
2023-05-17T11:09:47.816Z,1009.44
2023-05-17T11:10:47.819Z,1009.45
2023-05-17T11:11:47.804Z,1009.47
2023-05-17T11:12:47.793Z,1009.45
2023-05-17T11:13:47.768Z,1009.42
2023-05-17T11:14:47.774Z,1009.34
2023-05-17T11:15:47.764Z,1009.43
2023-05-17T11:16:47.741Z,1009.34
2023-05-17T11:17:47.739Z,1009.34
2023-05-17T11:18:47.879Z,1009.33
2023-05-17T11:19:47.780Z,1009.37
2023-05-17T11:20:47.915Z,1009.34
2023-05-17T11:21:47.751Z,1009.32
2023-05-17T11:22:47.664Z,1009.27
2023-05-17T11:23:47.618Z,1009.28
2023-05-17T11:24:47.647Z,1009.38
2023-05-17T11:25:47.616Z,1009.37
2023-05-17T11:26:47.606Z,1009.33
2023-05-17T11:27:47.592Z,1009.35
2023-05-17T11:28:47.583Z,1009.39
2023-05-17T11:29:47.586Z,1009.37
2023-05-17T11:30:47.561Z,1009.39
2023-05-17T11:31:47.518Z,1009.37
2023-05-17T11:32:47.586Z,1009.30
2023-05-17T11:33:47.598Z,1009.24
2023-05-17T11:34:47.576Z,1009.32
2023-05-17T11:35:50.021Z,1009.32
2023-05-17T11:36:47.480Z,1009.30
2023-05-17T11:37:47.483Z,1009.28
2023-05-17T11:38:48.196Z,1009.33
2023-05-17T11:39:47.460Z,1009.30
2023-05-17T11:40:47.447Z,1009.28
2023-05-17T11:41:47.452Z,1009.31
2023-05-17T11:42:47.399Z,1009.30
2023-05-17T11:43:47.426Z,1009.32
2023-05-17T11:44:47.359Z,1009.31
2023-05-17T11:45:47.348Z,1009.37
2023-05-17T11:46:47.348Z,1009.33
2023-05-17T11:47:47.419Z,1009.31
2023-05-17T11:48:47.415Z,1009.29
2023-05-17T11:49:47.302Z,1009.26
2023-05-17T11:50:47.284Z,1009.27
2023-05-17T11:51:47.253Z,1009.29
2023-05-17T11:52:47.311Z,1009.26
2023-05-17T11:53:47.273Z,1009.25
2023-05-17T11:54:47.247Z,1009.25
2023-05-17T11:55:47.206Z,1009.24
2023-05-17T11:56:47.192Z,1009.22
2023-05-17T11:57:47.206Z,1009.25
2023-05-17T11:58:47.178Z,1009.27
2023-05-17T11:59:47.149Z,1009.29
2023-05-17T12:00:47.164Z,1009.28
2023-05-17T12:01:47.134Z,1009.25
2023-05-17T12:02:47.197Z,1009.28
2023-05-17T12:03:47.105Z,1009.29
2023-05-17T12:04:47.137Z,1009.23
2023-05-17T12:05:47.067Z,1009.32
2023-05-17T12:06:47.089Z,1009.27